createdAt,value
2023-01-23T00:01:17.162Z,9.57
2023-01-23T00:03:43.838Z,8.13
2023-01-23T00:06:16.051Z,8.97
2023-01-23T00:08:44.310Z,8.80
2023-01-23T00:11:14.309Z,9.37
2023-01-23T00:13:40.871Z,8.77
2023-01-23T00:16:09.032Z,8.50
2023-01-23T00:18:35.993Z,7.90
2023-01-23T00:21:11.640Z,8.37
2023-01-23T00:23:38.415Z,8.00
2023-01-23T00:26:06.942Z,7.30
2023-01-23T00:28:34.847Z,8.07
2023-01-23T00:31:05.500Z,8.17
2023-01-23T00:33:32.290Z,7.90
2023-01-23T00:35:58.904Z,8.53
2023-01-23T00:38:25.572Z,8.83
2023-01-23T00:40:52.257Z,8.80
2023-01-23T00:43:18.808Z,8.30
2023-01-23T00:45:45.371Z,7.80
2023-01-23T00:48:12.756Z,7.70
2023-01-23T00:50:39.413Z,7.47
2023-01-23T00:53:06.182Z,8.43
2023-01-23T00:55:32.776Z,8.10
2023-01-23T00:58:00.248Z,7.97
2023-01-23T01:00:26.904Z,7.90
2023-01-23T01:02:53.528Z,7.70
2023-01-23T01:05:20.212Z,8.43
2023-01-23T01:07:47.976Z,8.13
2023-01-23T01:10:15.227Z,8.13
2023-01-23T01:12:41.829Z,7.80
2023-01-23T01:15:10.002Z,6.80
2023-01-23T01:17:37.314Z,6.87
2023-01-23T01:20:05.545Z,6.77
2023-01-23T01:22:32.227Z,6.83
2023-01-23T01:24:58.933Z,6.50
2023-01-23T01:27:25.917Z,6.77
2023-01-23T01:29:52.674Z,6.13
2023-01-23T01:32:19.321Z,6.47
2023-01-23T01:34:47.846Z,7.33
2023-01-23T01:37:15.759Z,7.10
2023-01-23T01:39:42.601Z,6.73
2023-01-23T01:42:09.174Z,6.53
2023-01-23T01:45:00.296Z,6.77
2023-01-23T01:47:27.449Z,5.97
2023-01-23T01:49:59.314Z,6.80
2023-01-23T01:52:26.905Z,6.27
2023-01-23T01:55:01.895Z,6.30
2023-01-23T01:57:43.552Z,6.20
2023-01-23T02:00:15.651Z,6.13
2023-01-23T02:02:51.511Z,6.30
2023-01-23T02:05:27.008Z,6.30
2023-01-23T02:08:03.655Z,5.87
2023-01-23T02:10:30.406Z,6.10
2023-01-23T02:13:36.100Z,7.00
2023-01-23T02:16:07.121Z,5.90
2023-01-23T02:18:36.905Z,6.50
2023-01-23T02:21:06.602Z,6.63
2023-01-23T02:24:04.527Z,6.43
2023-01-23T02:26:37.622Z,5.83
2023-01-23T02:29:05.697Z,6.53
2023-01-23T02:31:42.911Z,5.93
2023-01-23T02:34:13.008Z,6.17
2023-01-23T02:36:42.733Z,6.07
2023-01-23T02:39:10.739Z,6.17
2023-01-23T02:41:50.556Z,5.93
2023-01-23T02:44:33.468Z,6.23
2023-01-23T02:47:11.642Z,6.27
2023-01-23T02:49:39.959Z,6.03
2023-01-23T02:52:07.880Z,6.83
2023-01-23T02:54:36.191Z,6.23
2023-01-23T02:57:02.913Z,6.40
2023-01-23T02:59:49.266Z,7.07
2023-01-23T03:02:15.962Z,6.33
2023-01-23T03:04:42.594Z,6.17
2023-01-23T03:07:09.229Z,5.63
2023-01-23T03:09:35.966Z,6.27
2023-01-23T03:12:02.907Z,6.00
2023-01-23T03:14:31.703Z,5.97
2023-01-23T03:16:59.176Z,6.20
2023-01-23T03:19:31.289Z,6.40
2023-01-23T03:21:58.945Z,6.47
2023-01-23T03:24:25.537Z,6.00
2023-01-23T03:26:52.602Z,6.50
2023-01-23T03:29:43.812Z,6.67
2023-01-23T03:32:15.030Z,6.13
2023-01-23T03:34:42.882Z,6.53
2023-01-23T03:37:11.665Z,6.87
2023-01-23T03:39:57.960Z,6.63
2023-01-23T03:42:25.697Z,6.93
2023-01-23T03:44:55.206Z,6.47
2023-01-23T03:47:26.357Z,6.50
2023-01-23T03:49:53.946Z,6.37
2023-01-23T03:52:20.500Z,6.60
2023-01-23T03:54:47.245Z,6.53
2023-01-23T03:57:14.073Z,6.50
2023-01-23T04:00:00.923Z,6.47
2023-01-23T04:02:40.698Z,6.50
2023-01-23T04:05:09.813Z,6.07
2023-01-23T04:07:36.440Z,6.60
2023-01-23T04:10:03.713Z,6.40
2023-01-23T04:12:30.282Z,7.50
2023-01-23T04:14:57.278Z,6.57
2023-01-23T04:17:23.934Z,6.80
2023-01-23T04:19:51.205Z,6.67
2023-01-23T04:22:17.847Z,6.90
2023-01-23T04:24:47.464Z,6.70
2023-01-23T04:27:14.079Z,6.97
2023-01-23T04:29:40.888Z,6.50
2023-01-23T04:32:09.951Z,6.30
2023-01-23T04:34:41.403Z,6.50
2023-01-23T04:37:08.076Z,6.47
2023-01-23T04:39:34.679Z,5.93
2023-01-23T04:42:01.663Z,5.70
2023-01-23T04:44:48.484Z,6.20
2023-01-23T04:47:37.924Z,5.57
2023-01-23T04:50:09.395Z,6.00
2023-01-23T04:52:37.238Z,5.70
2023-01-23T04:55:04.370Z,5.70
2023-01-23T04:57:31.282Z,5.80
2023-01-23T05:00:08.293Z,5.43
2023-01-23T05:02:35.871Z,5.47
2023-01-23T05:05:02.811Z,5.77
2023-01-23T05:07:29.487Z,5.57
2023-01-23T05:10:09.690Z,5.80
2023-01-23T05:12:37.048Z,5.23
2023-01-23T05:15:04.663Z,5.00
2023-01-23T05:17:35.055Z,4.73
2023-01-23T05:20:02.427Z,5.07
2023-01-23T05:22:29.038Z,5.50
2023-01-23T05:24:55.634Z,4.97
2023-01-23T05:27:24.694Z,5.40
2023-01-23T05:29:52.341Z,5.17
2023-01-23T05:32:23.157Z,5.00
2023-01-23T05:35:08.183Z,5.47
2023-01-23T05:37:36.133Z,5.00
2023-01-23T05:40:08.207Z,5.37
2023-01-23T05:43:07.159Z,5.17
2023-01-23T05:45:59.829Z,5.13
2023-01-23T05:48:33.363Z,4.60
2023-01-23T05:51:03.439Z,4.67
2023-01-23T05:53:30.423Z,4.73
2023-01-23T05:55:57.303Z,5.53
2023-01-23T05:58:24.029Z,4.27
2023-01-23T06:00:50.758Z,4.30
2023-01-23T06:03:35.825Z,4.10
2023-01-23T06:06:17.442Z,4.50
2023-01-23T06:08:44.035Z,4.20
2023-01-23T06:11:10.653Z,4.47
2023-01-23T06:13:37.303Z,4.97
2023-01-23T06:16:04.335Z,4.83
2023-01-23T06:18:31.190Z,5.07
2023-01-23T06:21:01.347Z,4.83
2023-01-23T06:23:29.148Z,4.60
2023-01-23T06:26:03.516Z,5.57
2023-01-23T06:28:31.410Z,5.40
2023-01-23T06:31:02.581Z,5.40
2023-01-23T06:33:42.248Z,5.73
2023-01-23T06:36:11.320Z,6.27
2023-01-23T06:38:38.321Z,6.70
2023-01-23T06:41:08.929Z,5.83
2023-01-23T06:43:38.008Z,6.37
2023-01-23T06:46:11.645Z,6.00
2023-01-23T06:48:38.969Z,5.97
2023-01-23T06:51:06.385Z,5.93
2023-01-23T06:53:33.683Z,6.60
2023-01-23T06:56:02.232Z,6.53
2023-01-23T06:58:32.988Z,6.33
2023-01-23T07:00:59.806Z,6.13
2023-01-23T07:03:46.539Z,6.47
2023-01-23T07:06:14.627Z,6.40
2023-01-23T07:08:42.441Z,6.60
2023-01-23T07:11:09.783Z,6.40
2023-01-23T07:13:37.139Z,6.10
2023-01-23T07:16:04.951Z,6.50
2023-01-23T07:18:32.751Z,6.17
2023-01-23T07:21:03.471Z,6.23
2023-01-23T07:23:30.124Z,6.00
2023-01-23T07:26:00.920Z,6.17
2023-01-23T07:28:27.906Z,5.53
2023-01-23T07:30:54.547Z,6.10
2023-01-23T07:33:21.257Z,5.60
2023-01-23T07:35:47.836Z,6.20
2023-01-23T07:38:14.399Z,5.43
2023-01-23T07:40:42.906Z,5.83
2023-01-23T07:43:09.752Z,5.50
2023-01-23T07:45:36.315Z,5.17
2023-01-23T07:48:02.933Z,5.77
2023-01-23T07:50:29.527Z,5.97
2023-01-23T07:52:56.934Z,5.57
2023-01-23T07:55:23.568Z,4.33
2023-01-23T07:57:50.195Z,5.60
2023-01-23T08:00:17.143Z,6.10
2023-01-23T08:02:43.858Z,5.80
2023-01-23T08:05:10.617Z,6.00
2023-01-23T08:07:37.177Z,5.50
2023-01-23T08:10:03.975Z,5.80
2023-01-23T08:12:30.554Z,6.03
2023-01-23T08:14:57.106Z,6.13
2023-01-23T08:17:23.725Z,6.40
2023-01-23T08:19:50.286Z,6.13
2023-01-23T08:22:16.947Z,6.60
2023-01-23T08:24:43.525Z,6.60
2023-01-23T08:27:10.529Z,6.33
2023-01-23T08:29:37.147Z,6.33
2023-01-23T08:32:03.895Z,7.07
2023-01-23T08:34:30.507Z,6.33
2023-01-23T08:36:57.057Z,6.13
2023-01-23T08:39:24.738Z,5.83
2023-01-23T08:41:51.357Z,5.80
2023-01-23T08:44:18.056Z,6.53
2023-01-23T08:46:46.188Z,5.93
2023-01-23T08:49:13.620Z,6.00
2023-01-23T08:51:40.180Z,6.50
2023-01-23T08:54:06.887Z,6.17
2023-01-23T08:56:33.536Z,6.53
2023-01-23T08:59:00.093Z,6.37
2023-01-23T09:01:27.776Z,6.43
2023-01-23T09:03:54.461Z,6.10
2023-01-23T09:06:22.778Z,6.67
2023-01-23T09:08:50.065Z,6.50
2023-01-23T09:11:19.845Z,5.50
2023-01-23T09:13:47.420Z,6.10
2023-01-23T09:16:14.497Z,6.47
2023-01-23T09:18:41.152Z,5.83
2023-01-23T09:21:10.246Z,6.23
2023-01-23T09:23:37.652Z,5.90
2023-01-23T09:26:09.306Z,6.40
2023-01-23T09:28:37.352Z,5.70
2023-01-23T09:31:08.857Z,6.10
2023-01-23T09:33:35.926Z,6.27
2023-01-23T09:36:03.843Z,6.10
2023-01-23T09:38:30.436Z,5.43
2023-01-23T09:40:59.740Z,5.50
2023-01-23T09:43:32.050Z,6.00
2023-01-23T09:46:04.730Z,5.43
2023-01-23T09:48:42.742Z,5.80
2023-01-23T09:51:28.228Z,4.90
2023-01-23T09:54:01.591Z,5.23
2023-01-23T09:56:36.138Z,5.10
2023-01-23T09:59:13.466Z,5.47
2023-01-23T10:01:40.590Z,4.50
2023-01-23T10:04:11.503Z,5.33
2023-01-23T10:06:55.651Z,4.80
2023-01-23T10:09:44.807Z,5.37
2023-01-23T10:12:29.226Z,4.47
2023-01-23T10:14:58.589Z,4.27
2023-01-23T10:17:52.873Z,4.77
2023-01-23T10:20:41.431Z,4.40
2023-01-23T10:23:30.556Z,4.20
2023-01-23T10:25:58.492Z,4.50
2023-01-23T10:28:42.561Z,3.83
2023-01-23T10:31:21.775Z,4.70
2023-01-23T10:34:03.447Z,4.50
2023-01-23T10:36:54.691Z,4.30
2023-01-23T10:39:32.820Z,4.37
2023-01-23T10:42:02.317Z,4.53
2023-01-23T10:44:29.747Z,4.27
2023-01-23T10:47:01.646Z,4.20
2023-01-23T10:49:37.736Z,4.80
2023-01-23T10:52:05.686Z,4.33
2023-01-23T10:54:45.924Z,4.63
2023-01-23T10:57:12.406Z,4.70
2023-01-23T10:59:51.141Z,4.90
2023-01-23T11:02:22.182Z,4.93
2023-01-23T11:04:51.930Z,4.87
2023-01-23T11:07:36.538Z,4.60
2023-01-23T11:10:12.099Z,4.80
2023-01-23T11:13:21.303Z,4.87
2023-01-23T11:15:48.642Z,5.20
2023-01-23T11:18:39.684Z,4.83
2023-01-23T11:21:06.271Z,4.70
2023-01-23T11:23:34.486Z,4.70
2023-01-23T11:26:03.227Z,4.80
2023-01-23T11:28:35.119Z,4.90
2023-01-23T11:31:16.683Z,4.77
2023-01-23T11:33:53.173Z,4.77
2023-01-23T11:36:19.785Z,4.90
2023-01-23T11:38:57.674Z,4.27
2023-01-23T11:41:30.713Z,5.07
2023-01-23T11:43:57.469Z,4.93
2023-01-23T11:46:35.525Z,5.03
2023-01-23T11:49:11.583Z,4.87
2023-01-23T11:51:49.505Z,4.60
2023-01-23T11:54:50.859Z,5.07
2023-01-23T11:57:29.340Z,4.73
2023-01-23T12:00:12.127Z,5.20
2023-01-23T12:02:53.684Z,4.50
2023-01-23T12:05:38.751Z,4.43
2023-01-23T12:08:36.254Z,4.80
2023-01-23T12:11:16.652Z,4.70
2023-01-23T12:13:45.953Z,4.90
2023-01-23T12:16:18.421Z,4.40
2023-01-23T12:19:03.041Z,4.83
2023-01-23T12:21:48.085Z,4.90
2023-01-23T12:24:39.492Z,4.60
2023-01-23T12:27:18.816Z,5.00
2023-01-23T12:30:03.227Z,5.60
2023-01-23T12:32:52.449Z,4.93
2023-01-23T12:35:55.010Z,5.20
2023-01-23T12:38:31.517Z,5.23
2023-01-23T12:41:17.048Z,5.20
2023-01-23T12:44:11.239Z,4.83
2023-01-23T12:46:50.935Z,4.93
2023-01-23T12:49:50.842Z,5.20
2023-01-23T12:52:27.247Z,6.80
2023-01-23T12:55:15.720Z,5.87
2023-01-23T12:58:00.157Z,5.20
2023-01-23T13:00:53.000Z,5.50
2023-01-23T13:03:54.074Z,5.43
2023-01-23T13:06:58.303Z,6.37
2023-01-23T13:09:32.516Z,5.60
2023-01-23T13:12:05.301Z,5.37
2023-01-23T13:14:43.453Z,5.30
2023-01-23T13:17:37.884Z,5.50
2023-01-23T13:21:11.635Z,5.60
2023-01-23T13:23:38.386Z,5.53
2023-01-23T13:26:20.646Z,5.53
2023-01-23T13:28:53.902Z,5.50
2023-01-23T13:31:32.859Z,6.20
2023-01-23T13:34:14.524Z,6.03
2023-01-23T13:36:50.482Z,5.10
2023-01-23T13:39:17.092Z,5.93
2023-01-23T13:41:49.692Z,6.33
2023-01-23T13:44:21.349Z,5.90
2023-01-23T14:22:05.321Z,6.17
2023-01-23T14:24:47.432Z,6.33
2023-01-23T14:30:23.916Z,6.23
2023-01-23T14:32:50.572Z,6.43
2023-01-23T14:35:19.477Z,6.00
2023-01-23T14:37:46.965Z,6.47
2023-01-23T14:40:27.230Z,6.27
2023-01-23T14:43:02.314Z,6.77
2023-01-23T14:45:33.802Z,5.50
2023-01-23T14:48:07.612Z,5.80
2023-01-23T14:50:35.033Z,6.20
2023-01-23T14:53:04.793Z,9.10
2023-01-23T14:55:36.363Z,7.30
2023-01-23T14:58:04.022Z,6.80
2023-01-23T15:00:31.170Z,6.00
2023-01-23T15:02:57.745Z,6.20
2023-01-23T15:05:27.363Z,6.67
2023-01-23T15:07:58.040Z,6.57
2023-01-23T15:10:29.671Z,6.70
2023-01-23T15:13:12.071Z,6.30
2023-01-23T15:15:44.433Z,6.40
2023-01-23T15:18:28.739Z,6.23
2023-01-23T15:20:58.509Z,5.87
2023-01-23T15:23:25.604Z,7.07
2023-01-23T15:26:14.225Z,6.50
2023-01-23T15:28:40.985Z,5.93
2023-01-23T15:31:30.448Z,11.33
2023-01-23T15:34:16.580Z,6.90
2023-01-23T15:36:54.392Z,5.90
2023-01-23T15:39:29.095Z,6.03
2023-01-23T15:42:05.228Z,6.83
2023-01-23T15:44:32.982Z,6.50
2023-01-23T15:47:03.973Z,6.50
2023-01-23T15:49:32.719Z,6.40
2023-01-23T15:52:21.459Z,6.27
2023-01-23T15:54:51.179Z,6.80
2023-01-23T15:57:18.080Z,6.43
2023-01-23T15:59:44.664Z,6.50
2023-01-23T16:02:30.748Z,6.13
2023-01-23T16:04:58.458Z,7.00
2023-01-23T16:07:26.933Z,6.50
2023-01-23T16:09:55.065Z,6.03
2023-01-23T16:12:29.512Z,6.27
2023-01-23T16:14:57.098Z,6.60
2023-01-23T16:17:23.906Z,6.17
2023-01-23T16:19:50.737Z,6.47
2023-01-23T16:22:29.361Z,6.17
2023-01-23T16:24:57.558Z,6.27
2023-01-23T16:27:27.598Z,5.77
2023-01-23T16:29:55.660Z,6.13
2023-01-23T16:32:22.856Z,6.37
2023-01-23T16:34:49.791Z,6.03
2023-01-23T16:37:18.793Z,5.93
2023-01-23T16:39:46.421Z,6.27
2023-01-23T16:42:19.972Z,5.90
2023-01-23T16:44:46.658Z,6.13
2023-01-23T16:47:13.538Z,6.17
2023-01-23T16:49:51.527Z,6.57
2023-01-23T16:52:19.261Z,6.57
2023-01-23T16:54:45.912Z,6.60
2023-01-23T16:57:20.040Z,6.27
2023-01-23T16:59:48.182Z,6.30
2023-01-23T17:02:29.187Z,6.20
2023-01-23T17:04:55.891Z,6.13
2023-01-23T17:07:22.617Z,5.57
2023-01-23T17:09:49.371Z,6.03
2023-01-23T17:12:25.030Z,5.83
2023-01-23T17:14:52.653Z,6.47
2023-01-23T17:17:28.816Z,5.50
2023-01-23T17:19:55.618Z,6.03
2023-01-23T17:22:26.324Z,5.70
2023-01-23T17:24:53.312Z,5.37
2023-01-23T17:27:19.884Z,6.03
2023-01-23T17:29:46.541Z,6.00
2023-01-23T17:32:26.705Z,6.40
2023-01-23T17:34:53.421Z,5.50
2023-01-23T17:37:22.656Z,6.10
2023-01-23T17:39:49.404Z,6.50
2023-01-23T17:42:16.045Z,6.37
2023-01-23T17:44:42.647Z,6.03
2023-01-23T17:47:12.177Z,6.10
2023-01-23T17:49:39.437Z,8.77
2023-01-23T17:52:06.564Z,6.90
2023-01-23T17:54:33.223Z,6.30
2023-01-23T17:56:59.973Z,5.70
2023-01-23T17:59:27.423Z,5.33
2023-01-23T18:01:54.376Z,5.90
2023-01-23T18:04:24.432Z,5.93
2023-01-23T18:06:51.243Z,5.37
2023-01-23T18:09:18.950Z,5.50
2023-01-23T18:11:52.397Z,6.30
2023-01-23T18:14:51.454Z,5.83
2023-01-23T18:17:37.447Z,5.80
2023-01-23T18:20:16.301Z,5.00
2023-01-23T18:22:43.116Z,4.97
2023-01-23T18:25:14.898Z,5.63
2023-01-23T18:27:42.207Z,5.50
2023-01-23T18:30:21.610Z,5.47
2023-01-23T18:33:40.081Z,5.77
2023-01-23T18:36:26.036Z,5.60
2023-01-23T18:39:27.539Z,5.50
2023-01-23T18:42:24.978Z,5.63
2023-01-23T18:44:56.683Z,5.83
2023-01-23T18:47:25.408Z,6.33
2023-01-23T18:49:52.815Z,6.10
2023-01-23T18:52:30.891Z,6.40
2023-01-23T18:55:05.333Z,6.10
2023-01-23T18:58:09.359Z,5.70
2023-01-23T19:00:52.807Z,6.83
2023-01-23T19:03:28.238Z,6.17
2023-01-23T19:05:55.035Z,6.70
2023-01-23T19:08:30.817Z,7.00
2023-01-23T19:11:06.042Z,7.70
2023-01-23T19:13:44.784Z,5.87
2023-01-23T19:16:30.516Z,6.83
2023-01-23T19:19:25.138Z,7.73
2023-01-23T19:21:51.974Z,6.77
2023-01-23T19:24:19.612Z,6.90
2023-01-23T19:26:47.099Z,6.47
2023-01-23T19:29:21.977Z,6.87
2023-01-23T19:32:06.662Z,7.10
2023-01-23T19:34:34.211Z,6.93
2023-01-23T19:37:00.903Z,7.23
2023-01-23T19:39:27.448Z,7.47
2023-01-23T19:41:54.417Z,6.57
2023-01-23T19:44:24.065Z,7.53
2023-01-23T19:46:51.904Z,5.90
2023-01-23T19:49:18.563Z,7.43
2023-01-23T19:51:45.256Z,6.20
2023-01-23T19:54:14.382Z,7.30
2023-01-23T19:56:42.285Z,6.63
2023-01-23T19:59:09.328Z,7.03
2023-01-23T20:01:40.234Z,6.83
2023-01-23T20:04:17.651Z,7.00
2023-01-23T20:06:45.609Z,7.00
2023-01-23T20:09:17.517Z,7.50
2023-01-23T20:11:45.046Z,7.00
2023-01-23T20:14:12.487Z,7.53
2023-01-23T20:16:41.003Z,7.43
2023-01-23T20:19:07.747Z,7.47
2023-01-23T20:21:34.474Z,7.37
2023-01-23T20:24:01.112Z,8.03
2023-01-23T20:26:27.739Z,7.83
2023-01-23T20:28:54.375Z,7.63
2023-01-23T20:31:22.257Z,8.00
2023-01-23T20:33:49.278Z,7.77
2023-01-23T20:36:16.113Z,7.83
2023-01-23T20:38:43.205Z,7.70
2023-01-23T20:41:14.722Z,7.37
2023-01-23T20:43:45.024Z,7.87
2023-01-23T20:46:13.788Z,7.73
2023-01-23T20:48:43.887Z,7.73
2023-01-23T20:51:11.254Z,7.80
2023-01-23T20:53:39.878Z,7.83
2023-01-23T20:56:09.652Z,7.77
2023-01-23T20:58:58.411Z,8.20
2023-01-23T21:01:28.100Z,7.50
2023-01-23T21:03:54.847Z,7.13
2023-01-23T21:06:22.250Z,7.37
2023-01-23T21:08:49.119Z,7.80
2023-01-23T21:11:18.596Z,7.60
2023-01-23T21:13:51.142Z,8.17
2023-01-23T21:16:18.875Z,7.90
2023-01-23T21:18:47.113Z,7.73
2023-01-23T21:21:20.241Z,7.63
2023-01-23T21:23:49.305Z,7.43
2023-01-23T21:26:22.434Z,7.73
2023-01-23T21:28:51.255Z,7.13
2023-01-23T21:31:22.477Z,7.63
2023-01-23T21:33:49.357Z,7.50
2023-01-23T21:36:19.861Z,7.20
2023-01-23T21:38:47.126Z,7.40
2023-01-23T21:41:13.762Z,7.20
2023-01-23T21:43:40.640Z,6.93
2023-01-23T21:46:07.378Z,7.63
2023-01-23T21:48:34.993Z,7.37
2023-01-23T21:51:08.405Z,7.30
2023-01-23T21:53:40.755Z,7.57
2023-01-23T21:56:08.135Z,8.00
2023-01-23T21:58:35.021Z,7.87
2023-01-23T22:01:25.187Z,7.77
2023-01-23T22:03:52.711Z,7.30
2023-01-23T22:06:19.615Z,6.67
2023-01-23T22:08:46.516Z,7.50
2023-01-23T22:11:13.239Z,7.10
2023-01-23T22:13:40.156Z,7.33
2023-01-23T22:16:07.348Z,7.10
2023-01-23T22:18:34.151Z,7.87
2023-01-23T22:21:03.547Z,7.90
2023-01-23T22:23:31.723Z,7.40
2023-01-23T22:26:01.244Z,7.73
2023-01-23T22:28:28.321Z,8.23
2023-01-23T22:30:55.921Z,7.30
2023-01-23T22:33:24.058Z,7.13
2023-01-23T22:35:52.288Z,8.00
2023-01-23T22:38:18.868Z,7.77
2023-01-23T22:40:45.452Z,7.50
2023-01-23T22:43:12.036Z,7.60
2023-01-23T22:45:38.653Z,7.17
2023-01-23T22:48:05.513Z,7.10
2023-01-23T22:50:32.079Z,7.60
2023-01-23T22:52:58.660Z,7.47
2023-01-23T22:55:25.222Z,6.97
2023-01-23T22:57:53.261Z,7.53
2023-01-23T23:00:20.601Z,7.50
2023-01-23T23:02:47.492Z,7.63
2023-01-23T23:05:14.281Z,7.57
2023-01-23T23:07:40.848Z,7.60
2023-01-23T23:10:09.452Z,7.30
2023-01-23T23:12:36.004Z,7.10
2023-01-23T23:15:03.226Z,7.87
2023-01-23T23:17:30.244Z,8.03
2023-01-23T23:19:56.885Z,7.63
2023-01-23T23:22:23.579Z,7.43
2023-01-23T23:24:50.161Z,7.40
2023-01-23T23:27:16.767Z,7.67
2023-01-23T23:29:43.343Z,7.13
2023-01-23T23:32:09.994Z,7.30
2023-01-23T23:34:37.451Z,7.47
2023-01-23T23:37:04.372Z,7.43
2023-01-23T23:39:30.978Z,7.47
2023-01-23T23:41:58.560Z,7.33
2023-01-23T23:44:25.245Z,7.30
2023-01-23T23:46:51.799Z,7.13
2023-01-23T23:49:18.409Z,7.03
2023-01-23T23:51:44.963Z,7.27
2023-01-23T23:54:11.503Z,7.30
2023-01-23T23:56:38.066Z,7.30
2023-01-23T23:59:04.638Z,6.43
